Terminal Aerodrome Forecast
Issued by NWS

Home | Current Version | Previous Version | Text Only | Print | Product List | Glossary On
Versions: 1 2 3 4 5 6 7 8 9 10 11 12 13
000
FTUS45 KREV 280500
TAFMMH
TAF
KMMH 280523Z 2806/2906 VRB04KT P6SM SKC
     FM281000 20011KT P6SM SKC
     FM281700 21018G30KT P6SM FEW180
     FM282100 22022G34KT P6SM FEW100 SCT180
     FM290300 26019G32KT P6SM SCT100 BKN180
      AMD NOT SKED 2806/2814=

USA.gov is the U.S. government's official web portal to all federal, state and local government web resources and services.